Mount Croghan, South Carolina
Current Conditions -  °F | °C
As of 5:15 PM on Monday 26 Jan 2015 (Local Time) from KCQW Reporting Station
Broken Clouds Broken Clouds  
Wind Chill: 41°   Ceiling: 6500
Heat Index: 45°   Visibility: 10mi
Dew Point: 41°   Wind: 6mph
Humidity: 87%   Direction: 350°N
Pressure: 29.65"   Gusts: NA
Location:  34.77°N, 80.23°W
Report Text: KCQW 262215Z AUTO 35005KT 10SM FEW037 SCT046 BKN065 07/05 A2965 RMK AO2
Loading
Personal Weather Stations






























Interactive Weather Map New forecast layout! Learn more

10-Day Weather Forecast

Advertisements
Track Severe Weather on mobile